createdAt,value
2023-04-10T00:02:05.819Z,5.74
2023-04-10T00:04:34.967Z,5.73
2023-04-10T00:07:03.248Z,5.72
2023-04-10T00:09:31.271Z,5.69
2023-04-10T00:12:00.297Z,5.68
2023-04-10T00:14:28.830Z,5.67
2023-04-10T00:16:56.813Z,5.65
2023-04-10T00:19:25.470Z,5.61
2023-04-10T00:21:54.444Z,5.63
2023-04-10T00:24:22.618Z,5.60
2023-04-10T00:26:51.254Z,5.60
2023-04-10T00:29:20.510Z,5.64
2023-04-10T00:31:49.186Z,5.66
2023-04-10T00:34:22.304Z,5.67
2023-04-10T00:36:51.589Z,5.69
2023-04-10T00:39:22.217Z,5.70
2023-04-10T00:41:53.181Z,5.71
2023-04-10T00:44:22.220Z,5.73
2023-04-10T00:46:52.448Z,5.71
2023-04-10T00:49:19.979Z,5.71
2023-04-10T00:51:48.064Z,5.73
2023-04-10T00:54:19.397Z,5.73
2023-04-10T00:56:53.160Z,5.71
2023-04-10T00:59:23.595Z,5.69
2023-04-10T01:01:52.140Z,5.69
2023-04-10T01:04:22.202Z,5.66
2023-04-10T01:07:06.715Z,5.64
2023-04-10T01:09:54.665Z,5.59
2023-04-10T01:12:41.337Z,5.57
2023-04-10T01:15:15.287Z,5.57
2023-04-10T01:18:01.182Z,5.59
2023-04-10T01:20:31.791Z,5.56
2023-04-10T01:23:00.168Z,5.56
2023-04-10T01:25:38.768Z,5.55
2023-04-10T01:28:26.802Z,5.54
2023-04-10T01:31:01.072Z,5.54
2023-04-10T01:33:38.638Z,5.51
2023-04-10T01:36:07.235Z,5.53
2023-04-10T01:38:36.425Z,5.51
2023-04-10T01:41:04.430Z,5.48
2023-04-10T01:43:36.422Z,5.48
2023-04-10T01:46:07.108Z,5.49
2023-04-10T01:48:36.369Z,5.48
2023-04-10T01:51:08.766Z,5.45
2023-04-10T01:53:40.594Z,5.45
2023-04-10T01:56:10.330Z,5.42
2023-04-10T01:58:46.294Z,5.41
2023-04-10T02:01:29.559Z,5.40
2023-04-10T02:04:01.132Z,5.41
2023-04-10T02:06:37.940Z,5.42
2023-04-10T02:09:11.228Z,5.37
2023-04-10T02:12:00.424Z,5.37
2023-04-10T02:14:33.135Z,5.36
2023-04-10T02:17:04.530Z,5.36
2023-04-10T02:19:36.012Z,5.35
2023-04-10T02:22:04.663Z,5.32
2023-04-10T02:24:35.088Z,5.33
2023-04-10T02:27:04.562Z,5.30
2023-04-10T02:29:33.537Z,5.31
2023-04-10T02:32:07.162Z,5.26
2023-04-10T02:34:39.260Z,5.26
2023-04-10T02:37:09.141Z,5.24
2023-04-10T02:39:45.293Z,5.22
2023-04-10T02:42:14.732Z,5.21
2023-04-10T02:44:49.112Z,5.22
2023-04-10T02:47:16.735Z,5.22
2023-04-10T02:49:50.906Z,5.21
2023-04-10T02:52:19.463Z,5.20
2023-04-10T02:54:49.632Z,5.17
2023-04-10T02:57:20.840Z,5.18
2023-04-10T02:59:51.605Z,5.18
2023-04-10T03:02:23.006Z,5.16
2023-04-10T03:04:53.774Z,5.17
2023-04-10T03:07:29.731Z,5.12
2023-04-10T03:09:59.878Z,5.09
2023-04-10T03:12:28.225Z,5.11
2023-04-10T03:14:59.545Z,5.08
2023-04-10T03:17:28.455Z,5.06
2023-04-10T03:19:58.301Z,5.06
2023-04-10T03:22:34.078Z,5.05
2023-04-10T03:25:01.856Z,5.03
2023-04-10T03:27:32.517Z,5.02
2023-04-10T03:30:03.309Z,5.00
2023-04-10T03:32:39.162Z,4.96
2023-04-10T03:35:08.802Z,4.92
2023-04-10T03:37:36.591Z,4.89
2023-04-10T03:40:08.181Z,4.86
2023-04-10T03:42:36.976Z,4.81
2023-04-10T03:45:12.689Z,4.78
2023-04-10T03:47:44.235Z,4.76
2023-04-10T03:50:17.331Z,4.70
2023-04-10T03:52:55.594Z,4.67
2023-04-10T03:55:26.117Z,4.62
2023-04-10T03:57:55.018Z,4.51
2023-04-10T04:00:25.253Z,4.52
2023-04-10T04:03:05.047Z,4.48
2023-04-10T04:06:06.425Z,4.42
2023-04-10T04:09:01.425Z,4.44
2023-04-10T04:11:47.390Z,4.44
2023-04-10T04:14:36.343Z,4.49
2023-04-10T04:17:23.520Z,4.51
2023-04-10T04:20:12.922Z,4.54
2023-04-10T04:22:44.930Z,4.55
2023-04-10T04:25:32.152Z,4.54
2023-04-10T04:28:21.156Z,4.57
2023-04-10T04:31:02.855Z,4.59
2023-04-10T04:33:48.941Z,4.66
2023-04-10T04:36:54.310Z,4.74
2023-04-10T04:39:41.596Z,4.79
2023-04-10T04:42:33.765Z,4.84
2023-04-10T04:45:16.264Z,4.91
2023-04-10T04:48:14.202Z,4.94
2023-04-10T04:50:57.192Z,4.94
2023-04-10T04:53:45.782Z,4.98
2023-04-10T04:56:37.605Z,4.99
2023-04-10T04:59:25.402Z,5.03
2023-04-10T05:02:26.633Z,5.01
2023-04-10T05:05:18.142Z,5.11
2023-04-10T05:08:01.198Z,5.13
2023-04-10T05:11:06.919Z,5.31
2023-04-10T05:14:02.488Z,5.56
2023-04-10T05:16:48.287Z,5.60
2023-04-10T05:19:32.503Z,5.62
2023-04-10T05:22:25.284Z,5.70
2023-04-10T05:25:08.169Z,6.00
2023-04-10T05:28:03.969Z,6.46
2023-04-10T05:30:52.257Z,6.25
2023-04-10T05:33:40.679Z,6.31
2023-04-10T05:36:13.449Z,6.26
2023-04-10T05:39:01.523Z,6.44
2023-04-10T05:41:46.946Z,6.40
2023-04-10T05:44:23.659Z,6.56
2023-04-10T05:47:02.654Z,6.73
2023-04-10T05:49:41.153Z,6.92
2023-04-10T05:52:30.151Z,7.33
2023-04-10T05:55:16.510Z,7.18
2023-04-10T05:58:13.548Z,7.41
2023-04-10T06:01:05.262Z,7.90
2023-04-10T06:03:53.329Z,8.04
2023-04-10T06:06:22.592Z,7.90
2023-04-10T06:08:51.073Z,8.07
2023-04-10T06:11:19.069Z,8.07
2023-04-10T06:13:55.464Z,8.30
2023-04-10T06:16:30.934Z,8.57
2023-04-10T06:18:59.268Z,8.84
2023-04-10T06:21:31.995Z,8.98
2023-04-10T06:24:02.738Z,9.14
2023-04-10T06:26:32.705Z,8.92
2023-04-10T06:29:03.376Z,8.66
2023-04-10T06:31:33.179Z,8.49
2023-04-10T06:34:03.352Z,8.16
2023-04-10T06:36:31.778Z,8.24
2023-04-10T06:39:08.620Z,8.24
2023-04-10T06:41:37.210Z,8.00
2023-04-10T06:44:22.500Z,7.97
2023-04-10T06:46:49.730Z,8.00
2023-04-10T06:49:24.475Z,8.21
2023-04-10T06:51:52.183Z,8.78
2023-04-10T06:54:20.647Z,10.23
2023-04-10T06:56:50.487Z,11.04
2023-04-10T06:59:18.858Z,11.32
2023-04-10T07:01:45.831Z,11.74
2023-04-10T07:04:15.678Z,12.34
2023-04-10T07:06:43.605Z,12.69
2023-04-10T07:09:11.677Z,12.75
2023-04-10T07:11:39.256Z,13.05
2023-04-10T07:14:15.274Z,13.63
2023-04-10T07:16:43.813Z,15.12
2023-04-10T07:19:14.080Z,15.38
2023-04-10T07:21:41.184Z,15.69
2023-04-10T07:24:08.602Z,15.83
2023-04-10T07:26:36.467Z,16.62
2023-04-10T07:29:08.100Z,15.94
2023-04-10T07:31:35.559Z,16.37
2023-04-10T07:34:03.414Z,16.52
2023-04-10T07:36:34.372Z,16.70
2023-04-10T07:39:03.726Z,17.06
2023-04-10T07:41:31.013Z,17.11
2023-04-10T07:43:58.757Z,16.72
2023-04-10T07:46:27.635Z,16.37
2023-04-10T07:48:57.844Z,16.22
2023-04-10T07:51:26.156Z,17.29
2023-04-10T07:53:54.028Z,18.37
2023-04-10T07:56:23.839Z,17.75
2023-04-10T07:58:53.370Z,18.17
2023-04-10T08:01:23.565Z,18.41
2023-04-10T08:03:50.939Z,17.88
2023-04-10T08:06:18.512Z,18.30
2023-04-10T08:08:46.925Z,18.13
2023-04-10T08:11:30.520Z,18.18
2023-04-10T08:14:05.549Z,18.61
2023-04-10T08:16:34.402Z,18.59
2023-04-10T08:19:09.072Z,17.78
2023-04-10T08:21:40.467Z,17.56
2023-04-10T08:24:13.158Z,18.09
2023-04-10T08:26:45.477Z,17.65
2023-04-10T08:29:14.520Z,17.77
2023-04-10T08:31:43.779Z,18.69
2023-04-10T08:34:14.465Z,18.04
2023-04-10T08:36:43.791Z,18.32
2023-04-10T08:39:11.324Z,18.13
2023-04-10T08:41:41.148Z,18.29
2023-04-10T08:44:15.066Z,18.27
2023-04-10T08:46:45.302Z,17.72
2023-04-10T08:49:21.493Z,16.63
2023-04-10T08:51:58.122Z,16.37
2023-04-10T08:54:28.807Z,17.23
2023-04-10T08:56:57.266Z,16.74
2023-04-10T08:59:33.455Z,16.90
2023-04-10T09:02:05.954Z,16.40
2023-04-10T09:04:38.034Z,15.79
2023-04-10T09:07:07.839Z,16.33
2023-04-10T09:09:36.966Z,17.08
2023-04-10T09:12:04.755Z,17.12
2023-04-10T09:14:36.606Z,16.83
2023-04-10T09:17:26.471Z,16.68
2023-04-10T09:19:55.139Z,16.80
2023-04-10T09:22:37.717Z,16.60
2023-04-10T09:25:05.659Z,16.83
2023-04-10T09:27:38.688Z,17.16
2023-04-10T09:30:08.811Z,16.46
2023-04-10T09:32:43.612Z,16.12
2023-04-10T09:35:12.025Z,16.53
2023-04-10T09:37:41.880Z,16.29
2023-04-10T09:40:27.025Z,16.20
2023-04-10T09:42:56.045Z,16.22
2023-04-10T09:45:23.775Z,16.01
2023-04-10T09:48:10.569Z,16.59
2023-04-10T09:50:45.920Z,15.95
2023-04-10T09:53:14.133Z,16.07
2023-04-10T09:55:42.399Z,15.69
2023-04-10T09:58:11.758Z,15.66
2023-04-10T10:00:44.503Z,15.42
2023-04-10T10:03:16.046Z,15.50
2023-04-10T10:05:45.352Z,15.38
2023-04-10T10:08:16.774Z,15.51
2023-04-10T10:10:54.910Z,15.41
2023-04-10T10:13:30.026Z,15.35
2023-04-10T10:16:12.099Z,15.35
2023-04-10T10:18:59.457Z,14.96
2023-04-10T10:21:30.945Z,14.99
2023-04-10T10:24:00.863Z,14.68
2023-04-10T10:26:35.148Z,14.88
2023-04-10T10:29:07.202Z,15.39
2023-04-10T10:31:40.253Z,15.63
2023-04-10T10:34:11.440Z,15.05
2023-04-10T10:36:47.438Z,15.49
2023-04-10T10:39:15.957Z,15.59
2023-04-10T10:42:02.287Z,15.65
2023-04-10T10:44:35.166Z,15.39
2023-04-10T10:47:30.427Z,15.36
2023-04-10T10:50:02.452Z,14.96
2023-04-10T10:52:38.955Z,14.89
2023-04-10T10:55:23.213Z,14.83
2023-04-10T10:57:52.454Z,15.10
2023-04-10T11:00:21.961Z,15.07
2023-04-10T11:03:08.227Z,15.01
2023-04-10T11:05:56.478Z,15.13
2023-04-10T11:08:49.174Z,14.94
2023-04-10T11:11:20.292Z,15.03
2023-04-10T11:13:55.649Z,15.09
2023-04-10T11:16:34.263Z,15.20
2023-04-10T11:19:15.434Z,15.39
2023-04-10T11:22:04.800Z,15.63
2023-04-10T11:24:51.940Z,15.64
2023-04-10T11:27:37.495Z,15.66
2023-04-10T11:30:30.967Z,15.77
2023-04-10T11:33:00.576Z,15.23
2023-04-10T11:35:31.620Z,15.23
2023-04-10T11:38:13.258Z,15.46
2023-04-10T11:40:58.955Z,15.83
2023-04-10T11:43:26.910Z,15.99
2023-04-10T11:49:58.776Z,15.60
2023-04-10T11:52:26.546Z,15.44
2023-04-10T11:54:56.967Z,16.04
2023-04-10T11:57:26.973Z,15.50
2023-04-10T11:59:59.656Z,15.42
2023-04-10T12:02:30.675Z,15.49
2023-04-10T12:05:04.774Z,15.39
2023-04-10T12:07:36.160Z,15.16
2023-04-10T12:10:04.277Z,15.11
2023-04-10T12:12:38.495Z,15.14
2023-04-10T12:15:27.506Z,15.53
2023-04-10T12:17:55.781Z,15.70
2023-04-10T12:20:27.208Z,15.94
2023-04-10T12:22:57.394Z,16.11
2023-04-10T12:25:25.933Z,16.25
2023-04-10T12:27:57.496Z,15.95
2023-04-10T12:30:26.412Z,16.14
2023-04-10T12:32:56.997Z,15.86
2023-04-10T12:35:43.030Z,15.56
2023-04-10T12:38:14.295Z,15.45
2023-04-10T12:41:05.197Z,15.54
2023-04-10T12:43:34.526Z,15.57
2023-04-10T12:46:03.127Z,15.77
2023-04-10T12:48:30.742Z,15.80
2023-04-10T12:50:58.403Z,15.36
2023-04-10T12:53:28.639Z,15.53
2023-04-10T12:55:58.297Z,15.60
2023-04-10T12:58:31.435Z,16.03
2023-04-10T13:01:07.768Z,16.11
2023-04-10T13:03:38.268Z,16.17
2023-04-10T13:06:11.027Z,16.63
2023-04-10T13:08:41.560Z,16.75
2023-04-10T13:11:09.256Z,16.27
2023-04-10T13:13:36.339Z,15.81
2023-04-10T13:16:04.558Z,15.52
2023-04-10T13:18:38.192Z,15.35
2023-04-10T13:21:08.085Z,15.24
2023-04-10T13:23:39.465Z,15.19
2023-04-10T13:26:08.122Z,15.13
2023-04-10T13:28:36.362Z,15.09
2023-04-10T13:31:05.370Z,15.30
2023-04-10T13:33:36.273Z,15.44
2023-04-10T13:36:07.333Z,15.73
2023-04-10T13:38:34.875Z,16.02
2023-04-10T13:41:02.519Z,15.91
2023-04-10T13:43:33.255Z,16.01
2023-04-10T13:46:01.861Z,16.12
2023-04-10T13:48:40.047Z,16.08
2023-04-10T13:51:21.435Z,16.08
2023-04-10T13:53:49.629Z,15.88
2023-04-10T13:56:17.216Z,15.55
2023-04-10T13:58:49.128Z,15.51
2023-04-10T14:01:17.661Z,15.44
2023-04-10T14:03:50.589Z,15.22
2023-04-10T14:06:21.418Z,15.32
2023-04-10T14:08:51.903Z,15.28
2023-04-10T14:11:22.943Z,15.25
2023-04-10T14:13:53.505Z,15.13
2023-04-10T14:16:22.492Z,15.28
2023-04-10T14:18:52.648Z,15.26
2023-04-10T14:21:22.220Z,15.34
2023-04-10T14:23:49.522Z,15.36
2023-04-10T14:26:17.150Z,15.27
2023-04-10T14:28:45.717Z,15.27
2023-04-10T14:31:27.776Z,15.19
2023-04-10T14:33:59.326Z,14.98
2023-04-10T14:36:30.110Z,15.01
2023-04-10T14:39:01.479Z,15.12
2023-04-10T14:41:30.585Z,15.22
2023-04-10T14:43:58.543Z,15.34
2023-04-10T14:46:26.312Z,15.55
2023-04-10T14:48:53.473Z,15.45
2023-04-10T14:51:22.047Z,15.43
2023-04-10T14:53:52.942Z,15.43
2023-04-10T14:56:25.554Z,15.34
2023-04-10T14:58:55.060Z,15.34
2023-04-10T15:01:24.456Z,15.15
2023-04-10T15:03:55.663Z,15.17
2023-04-10T15:06:25.207Z,15.24
2023-04-10T15:08:52.328Z,15.08
2023-04-10T15:11:48.367Z,14.93
2023-04-10T15:14:15.501Z,14.88
2023-04-10T15:16:45.174Z,14.79
2023-04-10T15:19:15.712Z,14.77
2023-04-10T15:26:37.606Z,14.62
2023-04-10T15:37:57.550Z,14.19
2023-04-10T15:40:30.446Z,14.11
2023-04-10T15:43:04.124Z,14.09
2023-04-10T15:45:32.858Z,14.03
2023-04-10T15:48:03.159Z,14.02
2023-04-10T15:50:33.313Z,13.95
2023-04-10T15:53:05.809Z,13.84
2023-04-10T15:55:33.308Z,13.73
2023-04-10T15:58:03.314Z,13.69
2023-04-10T16:00:31.171Z,13.60
2023-04-10T16:03:02.393Z,13.57
2023-04-10T16:05:31.517Z,13.53
2023-04-10T16:08:04.127Z,13.50
2023-04-10T16:10:33.096Z,13.47
2023-04-10T16:13:05.535Z,13.46
2023-04-10T16:15:37.210Z,13.44
2023-04-10T16:18:08.063Z,13.34
2023-04-10T16:20:36.462Z,13.30
2023-04-10T16:23:06.792Z,13.32
2023-04-10T16:25:35.552Z,13.28
2023-04-10T16:28:08.114Z,13.20
2023-04-10T16:30:39.771Z,13.16
2023-04-10T16:33:07.367Z,13.01
2023-04-10T16:35:35.525Z,12.94
2023-04-10T16:38:10.129Z,12.87
2023-04-10T16:40:43.248Z,12.84
2023-04-10T16:43:15.735Z,12.72
2023-04-10T16:45:47.836Z,12.60
2023-04-10T16:48:16.789Z,12.47
2023-04-10T16:50:47.128Z,12.38
2023-04-10T16:53:17.792Z,12.37
2023-04-10T16:55:48.146Z,12.33
2023-04-10T16:58:26.606Z,12.32
2023-04-10T17:00:55.081Z,12.27
2023-04-10T17:03:24.335Z,12.19
2023-04-10T17:05:52.634Z,12.08
2023-04-10T17:08:23.581Z,12.01
2023-04-10T17:10:53.453Z,11.92
2023-04-10T17:13:21.382Z,11.81
2023-04-10T17:15:48.649Z,11.65
2023-04-10T17:18:18.117Z,11.55
2023-04-10T17:20:48.595Z,11.49
2023-04-10T17:23:17.494Z,11.35
2023-04-10T17:25:45.498Z,11.18
2023-04-10T17:28:16.705Z,11.05
2023-04-10T17:30:49.431Z,10.92
2023-04-10T17:33:23.680Z,10.83
2023-04-10T17:35:53.452Z,10.73
2023-04-10T17:38:26.056Z,10.61
2023-04-10T17:40:53.605Z,10.46
2023-04-10T17:43:24.986Z,10.33
2023-04-10T17:45:52.252Z,10.30
2023-04-10T17:48:22.950Z,10.17
2023-04-10T17:50:52.623Z,10.08
2023-04-10T17:53:29.755Z,9.93
2023-04-10T17:55:57.048Z,9.81
2023-04-10T17:58:24.800Z,9.70
2023-04-10T18:00:55.996Z,9.62
2023-04-10T18:03:23.807Z,9.56
2023-04-10T18:05:56.160Z,9.52
2023-04-10T18:08:35.212Z,9.49
2023-04-10T18:11:08.705Z,9.44
2023-04-10T18:13:36.497Z,9.38
2023-04-10T18:16:05.713Z,9.36
2023-04-10T18:18:35.060Z,9.28
2023-04-10T18:21:05.278Z,9.26
2023-04-10T18:23:33.852Z,9.16
2023-04-10T18:26:04.492Z,9.04
2023-04-10T18:28:32.181Z,8.96
2023-04-10T18:31:03.155Z,8.92
2023-04-10T18:33:31.577Z,8.89
2023-04-10T18:36:01.354Z,8.80
2023-04-10T18:38:32.310Z,8.75
2023-04-10T18:41:01.730Z,8.66
2023-04-10T18:43:31.484Z,8.66
2023-04-10T18:45:59.153Z,8.75
2023-04-10T18:48:29.328Z,8.78
2023-04-10T18:50:59.549Z,8.89
2023-04-10T18:53:33.711Z,8.75
2023-04-10T18:56:01.134Z,8.66
2023-04-10T18:58:35.635Z,8.58
2023-04-10T19:01:04.694Z,8.46
2023-04-10T19:03:36.234Z,8.37
2023-04-10T19:06:04.968Z,8.26
2023-04-10T19:08:32.630Z,8.17
2023-04-10T19:11:04.144Z,8.04
2023-04-10T19:13:34.453Z,7.94
2023-04-10T19:16:06.281Z,7.87
2023-04-10T19:18:36.546Z,7.85
2023-04-10T19:21:09.962Z,7.93
2023-04-10T19:23:39.742Z,7.82
2023-04-10T19:26:09.840Z,7.86
2023-04-10T19:28:39.436Z,7.78
2023-04-10T19:31:09.430Z,7.80
2023-04-10T19:33:41.995Z,7.88
2023-04-10T19:36:12.407Z,7.97
2023-04-10T19:38:41.045Z,7.95
2023-04-10T19:41:13.827Z,7.99
2023-04-10T19:43:44.048Z,8.06
2023-04-10T19:46:26.332Z,8.01
2023-04-10T19:48:55.016Z,7.96
2023-04-10T19:51:22.785Z,7.87
2023-04-10T19:53:50.950Z,7.78
2023-04-10T19:56:18.296Z,7.67
2023-04-10T19:58:47.102Z,7.61
2023-04-10T20:01:18.963Z,7.52
2023-04-10T20:03:52.458Z,7.44
2023-04-10T20:06:23.276Z,7.42
2023-04-10T20:08:51.242Z,7.30
2023-04-10T20:11:18.743Z,7.28
2023-04-10T20:13:46.678Z,7.22
2023-04-10T20:16:17.076Z,7.17
2023-04-10T20:18:47.050Z,7.04
2023-04-10T20:21:14.720Z,6.94
2023-04-10T20:23:44.568Z,7.00
2023-04-10T20:26:14.367Z,7.13
2023-04-10T20:28:43.125Z,7.08
2023-04-10T20:31:11.970Z,7.10
2023-04-10T20:33:40.843Z,7.07
2023-04-10T20:36:10.479Z,6.96
2023-04-10T20:38:42.941Z,6.81
2023-04-10T20:41:12.008Z,6.63
2023-04-10T20:43:40.322Z,6.51
2023-04-10T20:46:10.736Z,6.52
2023-04-10T20:48:39.342Z,6.50
2023-04-10T20:51:13.848Z,6.47
2023-04-10T20:53:41.425Z,6.48
2023-04-10T20:56:09.166Z,6.40
2023-04-10T20:58:37.924Z,6.32
2023-04-10T21:01:06.145Z,6.37
2023-04-10T21:03:35.671Z,6.27
2023-04-10T21:06:06.891Z,6.28
2023-04-10T21:08:36.772Z,6.27
2023-04-10T21:11:07.401Z,6.23
2023-04-10T21:13:37.893Z,6.12
2023-04-10T21:16:07.794Z,6.05
2023-04-10T21:18:37.852Z,5.91
2023-04-10T21:21:12.252Z,5.77
2023-04-10T21:23:41.173Z,5.76
2023-04-10T21:26:11.218Z,5.66
2023-04-10T21:28:41.118Z,5.55
2023-04-10T21:31:14.375Z,5.46
2023-04-10T21:33:43.001Z,5.43
2023-04-10T21:36:12.874Z,5.41
2023-04-10T21:38:47.314Z,5.37
2023-04-10T21:41:19.429Z,5.43
2023-04-10T21:43:49.343Z,5.35
2023-04-10T21:46:22.183Z,5.28
2023-04-10T21:48:53.371Z,5.30
2023-04-10T21:51:25.728Z,5.24
2023-04-10T21:53:59.536Z,5.18
2023-04-10T21:56:29.545Z,5.12
2023-04-10T21:58:59.254Z,5.12
2023-04-10T22:01:26.978Z,5.13
2023-04-10T22:03:57.856Z,5.19
2023-04-10T22:06:26.799Z,5.17
2023-04-10T22:08:54.791Z,5.17
2023-04-10T22:11:33.419Z,5.19
2023-04-10T22:14:09.368Z,5.18
2023-04-10T22:16:42.753Z,5.04
2023-04-10T22:19:14.774Z,4.92
2023-04-10T22:21:42.812Z,4.85
2023-04-10T22:24:13.437Z,4.81
2023-04-10T22:26:42.171Z,4.73
2023-04-10T22:29:16.961Z,4.64
2023-04-10T22:31:45.766Z,4.59
2023-04-10T22:34:15.537Z,4.58
2023-04-10T22:36:45.371Z,4.55
2023-04-10T22:39:17.240Z,4.51
2023-04-10T22:41:48.262Z,4.48
2023-04-10T22:44:19.578Z,4.45
2023-04-10T22:46:55.848Z,4.44
2023-04-10T22:49:24.744Z,4.39
2023-04-10T22:51:53.742Z,4.34
2023-04-10T22:54:22.432Z,4.29
2023-04-10T22:56:50.906Z,4.27
2023-04-10T22:59:19.060Z,4.31
2023-04-10T23:01:47.772Z,4.31
2023-04-10T23:04:27.859Z,4.25
2023-04-10T23:06:59.661Z,4.18
2023-04-10T23:09:31.109Z,4.17
2023-04-10T23:12:01.237Z,4.36
2023-04-10T23:14:29.086Z,4.44
2023-04-10T23:16:57.377Z,4.45
2023-04-10T23:19:28.709Z,4.47
2023-04-10T23:21:55.949Z,4.44
2023-04-10T23:24:32.152Z,4.34
2023-04-10T23:27:12.224Z,4.28
2023-04-10T23:29:49.385Z,4.19
2023-04-10T23:32:18.535Z,4.14
2023-04-10T23:34:49.572Z,4.05
2023-04-10T23:37:17.340Z,3.99
2023-04-10T23:39:47.627Z,3.96
2023-04-10T23:42:15.702Z,4.01
2023-04-10T23:44:47.287Z,4.01
2023-04-10T23:47:16.926Z,4.03
2023-04-10T23:49:44.328Z,4.06
2023-04-10T23:52:15.103Z,4.01
2023-04-10T23:54:44.938Z,3.97
2023-04-10T23:57:18.072Z,3.88
2023-04-10T23:59:47.241Z,3.78
